Time;durP1;ratioP1;P1;durP2;ratioP2;P2;SDS_P1;SDS_P2;PMS_P1;PMS_P2;Temp;Humidity;BMP_temperature;BMP_pressure;BME280_temperature;BME280_humidity;BME280_pressure;Samples;Min_cycle;Max_cycle;Signal;HPM_P1;HPM_P2
2024/01/21 00:00:44;;;;;;;1.90;1.80;;;-1.10;98.20;;;;;;4963287;28;20462;-75
2024/01/21 00:03:12;;;;;;;1.70;1.60;;;-1.10;98.20;;;;;;4959547;28;20485;-74
2024/01/21 00:05:39;;;;;;;1.97;1.87;;;-1.10;98.20;;;;;;4962031;28;20520;-74
2024/01/21 00:08:06;;;;;;;1.80;1.70;;;-1.00;98.20;;;;;;4952624;28;20490;-74
2024/01/21 00:10:33;;;;;;;1.90;1.80;;;-1.00;98.20;;;;;;4960688;28;20465;-75
2024/01/21 00:13:00;;;;;;;1.70;1.60;;;-1.00;98.20;;;;;;4953664;28;20489;-75
2024/01/21 00:15:26;;;;;;;1.73;1.63;;;-1.00;98.20;;;;;;4967089;28;20476;-75
2024/01/21 00:17:53;;;;;;;1.80;1.70;;;-1.00;98.20;;;;;;4943337;28;20482;-77
2024/01/21 00:20:21;;;;;;;1.70;1.60;;;-1.00;98.20;;;;;;4957627;28;20467;-75
2024/01/21 00:22:48;;;;;;;1.80;1.70;;;-0.90;98.20;;;;;;4955487;28;20905;-74
2024/01/21 00:25:15;;;;;;;3.27;3.07;;;-0.90;98.20;;;;;;4959280;28;20838;-75
2024/01/21 00:27:42;;;;;;;1.80;1.70;;;-0.90;98.20;;;;;;4957868;28;20490;-75
2024/01/21 00:30:09;;;;;;;1.80;1.70;;;-0.90;98.20;;;;;;4958924;28;20864;-76
2024/01/21 00:32:35;;;;;;;1.90;1.80;;;-0.90;98.20;;;;;;4953864;28;20485;-74
2024/01/21 00:35:03;;;;;;;1.70;1.60;;;-0.90;98.20;;;;;;4960054;28;20498;-74
2024/01/21 00:37:31;;;;;;;1.70;1.60;;;-0.90;98.20;;;;;;4959089;28;20862;-75
2024/01/21 00:39:58;;;;;;;1.80;1.70;;;-0.90;98.20;;;;;;4951180;28;20490;-73
2024/01/21 00:42:24;;;;;;;1.90;1.80;;;-0.80;98.20;;;;;;4948131;28;20478;-75
2024/01/21 00:44:51;;;;;;;2.57;2.40;;;-0.80;98.20;;;;;;4961218;28;20462;-75
2024/01/21 00:47:20;;;;;;;1.90;1.80;;;-0.80;98.20;;;;;;4950847;28;20508;-74
2024/01/21 00:49:47;;;;;;;1.83;1.73;;;-0.80;98.20;;;;;;4956810;28;21173;-75
2024/01/21 00:52:13;;;;;;;1.80;1.70;;;-0.80;98.20;;;;;;4952980;28;20481;-77
2024/01/21 00:54:41;;;;;;;1.80;1.70;;;-0.80;98.20;;;;;;4965766;28;20494;-78
2024/01/21 00:57:08;;;;;;;1.97;1.87;;;-0.70;98.20;;;;;;4958891;28;20482;-76
2024/01/21 00:59:35;;;;;;;2.63;2.43;;;-0.70;98.20;;;;;;4970365;28;20489;-79
2024/01/21 01:02:02;;;;;;;2.20;2.03;;;-0.60;98.20;;;;;;4959694;28;20490;-81
2024/01/21 01:04:28;;;;;;;2.10;2.00;;;-0.60;98.20;;;;;;4966883;28;20462;-77
2024/01/21 01:06:55;;;;;;;1.93;1.83;;;-0.60;98.20;;;;;;4960992;28;20486;-76
2024/01/21 01:09:22;;;;;;;1.90;1.80;;;-0.60;98.20;;;;;;4966580;28;20478;-76
2024/01/21 01:11:50;;;;;;;1.90;1.80;;;-0.60;98.20;;;;;;4957642;28;20852;-76
2024/01/21 01:14:17;;;;;;;1.70;1.60;;;-0.60;98.20;;;;;;4967325;28;20989;-76
2024/01/21 01:16:44;;;;;;;1.70;1.60;;;-0.60;98.20;;;;;;4956578;28;20486;-78
2024/01/21 01:19:11;;;;;;;1.80;1.70;;;-0.60;98.20;;;;;;4965354;28;20789;-77
2024/01/21 01:21:38;;;;;;;1.80;1.70;;;-0.60;98.20;;;;;;4956689;28;20488;-78
2024/01/21 01:24:05;;;;;;;1.80;1.70;;;-0.60;98.20;;;;;;4968454;28;20468;-77
2024/01/21 01:26:32;;;;;;;1.73;1.63;;;-0.50;98.20;;;;;;4957404;28;21079;-78
2024/01/21 01:29:00;;;;;;;1.70;1.60;;;-0.50;98.20;;;;;;4964980;28;20479;-75
2024/01/21 01:31:26;;;;;;;1.73;1.63;;;-0.50;98.20;;;;;;4952196;28;20497;-76
2024/01/21 01:33:53;;;;;;;2.30;2.10;;;-0.50;98.20;;;;;;4958712;28;20486;-76
2024/01/21 01:36:20;;;;;;;1.70;1.60;;;-0.50;98.20;;;;;;4952850;28;20482;-76
2024/01/21 01:38:47;;;;;;;1.60;1.50;;;-0.50;98.20;;;;;;4963382;28;20498;-76
2024/01/21 01:41:13;;;;;;;1.93;1.80;;;-0.50;98.20;;;;;;4949683;28;20490;-76
2024/01/21 01:43:40;;;;;;;1.80;1.70;;;-0.50;98.20;;;;;;4968745;28;20468;-76
2024/01/21 01:46:09;;;;;;;1.90;1.70;;;-0.50;98.20;;;;;;4952760;28;20462;-77
2024/01/21 01:48:35;;;;;;;1.80;1.70;;;-0.50;98.20;;;;;;4966302;28;21122;-76
2024/01/21 01:51:04;;;;;;;1.77;1.67;;;-0.50;98.20;;;;;;4949377;28;20467;-76
2024/01/21 01:53:33;;;;;;;1.67;1.57;;;-0.40;98.20;;;;;;4962195;28;20469;-76
2024/01/21 01:55:59;;;;;;;1.77;1.67;;;-0.40;98.20;;;;;;4954330;28;20957;-76
2024/01/21 01:58:29;;;;;;;1.70;1.60;;;-0.40;98.20;;;;;;4964393;28;20861;-76
2024/01/21 02:00:56;;;;;;;1.73;1.63;;;-0.40;98.20;;;;;;4947054;28;20517;-76
2024/01/21 02:03:25;;;;;;;1.70;1.60;;;-0.40;98.20;;;;;;4964282;28;20459;-77
2024/01/21 02:05:52;;;;;;;1.73;1.63;;;-0.40;98.20;;;;;;4955956;28;20461;-76
2024/01/21 02:08:18;;;;;;;1.67;1.50;;;-0.40;98.20;;;;;;4965400;28;20486;-76
2024/01/21 02:10:46;;;;;;;1.70;1.60;;;-0.40;98.20;;;;;;4953222;28;20480;-76
2024/01/21 02:13:12;;;;;;;1.90;1.80;;;-0.40;98.20;;;;;;4932305;28;20473;-76
2024/01/21 02:15:39;;;;;;;1.70;1.60;;;-0.40;98.20;;;;;;4966405;28;21027;-74
2024/01/21 02:18:06;;;;;;;1.63;1.50;;;-0.40;98.20;;;;;;4954960;28;20478;-76
2024/01/21 02:20:35;;;;;;;1.67;1.50;;;-0.40;98.20;;;;;;4965291;28;20458;-76
2024/01/21 02:23:06;;;;;;;1.70;1.60;;;-0.40;98.20;;;;;;4955613;28;20482;-76
2024/01/21 02:25:33;;;;;;;1.87;1.60;;;-0.40;98.20;;;;;;4964954;28;20465;-76
2024/01/21 02:28:00;;;;;;;1.90;1.80;;;-0.40;98.20;;;;;;4953743;28;20569;-78
2024/01/21 02:30:27;;;;;;;1.70;1.60;;;-0.40;98.20;;;;;;4965577;28;20563;-76
2024/01/21 02:32:53;;;;;;;1.70;1.60;;;-0.40;98.20;;;;;;4956789;28;20482;-76
2024/01/21 02:35:20;;;;;;;1.70;1.60;;;-0.40;98.20;;;;;;4966070;28;20492;-76
2024/01/21 02:37:47;;;;;;;2.30;2.10;;;-0.40;98.20;;;;;;4957403;28;20486;-77
2024/01/21 02:40:15;;;;;;;2.00;1.90;;;-0.40;98.20;;;;;;4956982;28;20471;-77
2024/01/21 02:42:42;;;;;;;3.30;3.10;;;-0.40;98.20;;;;;;4957666;28;21048;-76
2024/01/21 02:45:09;;;;;;;1.77;1.67;;;-0.40;98.20;;;;;;4968228;28;20499;-76
2024/01/21 02:47:36;;;;;;;1.67;1.50;;;-0.40;98.20;;;;;;4959186;28;20481;-77
2024/01/21 02:50:02;;;;;;;2.53;2.33;;;-0.40;98.20;;;;;;4965905;28;20489;-76
2024/01/21 02:52:29;;;;;;;1.60;1.50;;;-0.40;98.20;;;;;;4960374;28;20485;-76
2024/01/21 02:54:56;;;;;;;1.80;1.70;;;-0.40;98.20;;;;;;4969599;28;21243;-76
2024/01/21 02:57:24;;;;;;;2.50;2.30;;;-0.40;98.20;;;;;;4959476;28;20482;-76
2024/01/21 02:59:51;;;;;;;1.63;1.50;;;-0.40;98.20;;;;;;4967633;28;20488;-78
2024/01/21 03:02:17;;;;;;;1.70;1.60;;;-0.40;98.20;;;;;;4960433;28;20488;-76
2024/01/21 03:04:44;;;;;;;1.63;1.50;;;-0.40;98.20;;;;;;4969369;28;20461;-76
2024/01/21 03:07:11;;;;;;;1.63;1.53;;;-0.40;98.20;;;;;;4959881;28;20501;-77
2024/01/21 03:09:37;;;;;;;2.00;1.80;;;-0.30;98.20;;;;;;4964517;28;21005;-76
2024/01/21 03:12:05;;;;;;;1.70;1.60;;;-0.30;98.20;;;;;;4955755;28;20489;-76
2024/01/21 03:14:33;;;;;;;2.73;2.53;;;-0.30;98.20;;;;;;4965736;28;20501;-73
2024/01/21 03:16:59;;;;;;;1.87;1.77;;;-0.30;98.20;;;;;;4960151;28;20940;-74
2024/01/21 03:19:26;;;;;;;1.63;1.50;;;-0.30;98.20;;;;;;4964633;28;20496;-74
2024/01/21 03:21:53;;;;;;;1.80;1.70;;;-0.30;98.20;;;;;;4955297;28;20477;-74
2024/01/21 03:24:20;;;;;;;1.70;1.60;;;-0.30;98.20;;;;;;4966760;28;20549;-74
2024/01/21 03:26:46;;;;;;;1.70;1.60;;;-0.30;98.20;;;;;;4959526;28;20493;-74
2024/01/21 03:29:13;;;;;;;1.80;1.70;;;-0.30;98.20;;;;;;4966228;28;20481;-74
2024/01/21 03:31:41;;;;;;;1.70;1.60;;;-0.40;98.20;;;;;;4957950;28;20485;-73
2024/01/21 03:34:08;;;;;;;1.70;1.60;;;-0.40;98.20;;;;;;4967176;28;20496;-77
2024/01/21 03:36:35;;;;;;;1.80;1.70;;;-0.40;98.20;;;;;;4957499;28;20481;-76
2024/01/21 03:39:01;;;;;;;1.70;1.60;;;-0.40;98.20;;;;;;4966926;28;20473;-76
2024/01/21 03:41:28;;;;;;;2.93;2.73;;;-0.40;98.20;;;;;;4959351;28;20535;-78
2024/01/21 03:43:56;;;;;;;1.70;1.60;;;-0.40;98.20;;;;;;4967208;28;20472;-78
2024/01/21 03:46:24;;;;;;;1.70;1.60;;;-0.40;98.20;;;;;;4962250;28;20477;-76
2024/01/21 03:48:52;;;;;;;1.70;1.60;;;-0.40;98.20;;;;;;4971112;28;20581;-76
2024/01/21 03:51:18;;;;;;;2.47;2.27;;;-0.40;98.20;;;;;;4956686;28;20523;-75
2024/01/21 03:53:45;;;;;;;1.80;1.70;;;-0.40;98.20;;;;;;4952654;28;20466;-74
2024/01/21 03:56:18;;;;;;;1.70;1.60;;;-0.40;98.20;;;;;;4959317;28;20477;-74
2024/01/21 03:58:44;;;;;;;1.60;1.50;;;-0.40;98.20;;;;;;4963802;28;20548;-74
2024/01/21 04:01:11;;;;;;;1.90;1.80;;;-0.40;98.20;;;;;;4953437;28;20483;-74
2024/01/21 04:03:38;;;;;;;1.70;1.60;;;-0.40;98.20;;;;;;4968073;28;20457;-74
2024/01/21 04:06:06;;;;;;;1.90;1.80;;;-0.40;98.20;;;;;;4954139;28;21127;-75
2024/01/21 04:08:33;;;;;;;1.73;1.63;;;-0.40;98.20;;;;;;4964837;28;20486;-74
2024/01/21 04:11:00;;;;;;;1.77;1.67;;;-0.40;98.20;;;;;;4951802;28;20522;-74
2024/01/21 04:13:27;;;;;;;1.60;1.50;;;-0.30;98.20;;;;;;4967403;28;20469;-74
2024/01/21 04:15:54;;;;;;;1.70;1.60;;;-0.30;98.20;;;;;;4952684;28;20882;-74
2024/01/21 04:18:20;;;;;;;1.60;1.50;;;-0.30;98.20;;;;;;4968038;28;20566;-74
2024/01/21 04:20:47;;;;;;;1.80;1.70;;;-0.30;98.20;;;;;;4946926;28;20847;-74
2024/01/21 04:23:15;;;;;;;1.93;1.83;;;-0.30;98.20;;;;;;4969315;28;20470;-74
2024/01/21 04:25:42;;;;;;;1.70;1.60;;;-0.30;98.20;;;;;;4968311;28;20458;-74
2024/01/21 04:28:09;;;;;;;1.70;1.60;;;-0.30;98.20;;;;;;4940790;28;20486;-74
2024/01/21 04:30:36;;;;;;;1.70;1.60;;;-0.30;98.20;;;;;;4965545;28;20465;-74
2024/01/21 04:33:03;;;;;;;1.70;1.60;;;-0.30;98.20;;;;;;4959181;28;20485;-76
2024/01/21 04:35:30;;;;;;;3.00;2.80;;;-0.30;98.20;;;;;;4960905;28;20498;-76
2024/01/21 04:37:57;;;;;;;1.70;1.60;;;-0.30;98.20;;;;;;4965590;28;20516;-77
2024/01/21 04:40:26;;;;;;;1.73;1.63;;;-0.30;98.20;;;;;;4961194;28;20467;-76
2024/01/21 04:42:53;;;;;;;1.70;1.60;;;-0.30;98.20;;;;;;4959566;28;20474;-79
2024/01/21 04:45:19;;;;;;;4.83;4.43;;;-0.30;98.20;;;;;;4962266;28;20468;-75
2024/01/21 04:47:46;;;;;;;1.60;1.50;;;-0.30;98.20;;;;;;4965125;28;20489;-75
2024/01/21 04:50:13;;;;;;;1.87;1.77;;;-0.30;98.20;;;;;;4953318;28;20486;-75
2024/01/21 04:52:39;;;;;;;1.70;1.60;;;-0.20;98.20;;;;;;4959977;28;20478;-75
2024/01/21 04:55:07;;;;;;;1.70;1.60;;;-0.20;98.20;;;;;;4960990;28;20986;-74
2024/01/21 04:57:35;;;;;;;1.60;1.50;;;-0.20;98.20;;;;;;4954907;28;20487;-75
2024/01/21 05:00:03;;;;;;;1.70;1.60;;;-0.20;98.20;;;;;;4961822;28;20840;-74
2024/01/21 05:02:30;;;;;;;1.70;1.60;;;-0.20;98.20;;;;;;4954135;28;20528;-75
2024/01/21 05:04:57;;;;;;;1.60;1.50;;;-0.20;98.20;;;;;;4962680;28;20578;-75
2024/01/21 05:07:23;;;;;;;1.63;1.50;;;-0.20;98.20;;;;;;4954588;28;20569;-75
2024/01/21 05:09:50;;;;;;;1.70;1.60;;;-0.20;98.20;;;;;;4956661;28;20490;-75
2024/01/21 05:12:17;;;;;;;1.70;1.60;;;-0.20;98.20;;;;;;4954083;28;20478;-75
2024/01/21 05:14:45;;;;;;;1.70;1.60;;;-0.20;98.20;;;;;;4956466;28;20875;-74
2024/01/21 05:17:12;;;;;;;1.80;1.70;;;-0.10;98.20;;;;;;4955417;28;20477;-74
2024/01/21 05:19:38;;;;;;;1.80;1.70;;;-0.10;98.20;;;;;;4960581;28;21268;-76
2024/01/21 05:22:05;;;;;;;1.70;1.60;;;-0.10;98.20;;;;;;4956393;28;20487;-76
2024/01/21 05:24:35;;;;;;;1.70;1.60;;;-0.10;98.20;;;;;;4961809;28;20480;-75
2024/01/21 05:27:02;;;;;;;1.70;1.60;;;-0.10;98.20;;;;;;4955144;28;20487;-75
2024/01/21 05:29:29;;;;;;;1.60;1.50;;;-0.10;98.20;;;;;;4962677;28;20496;-75
2024/01/21 05:31:57;;;;;;;1.70;1.60;;;0.00;98.20;;;;;;4957420;28;20481;-75
2024/01/21 05:34:23;;;;;;;1.70;1.60;;;0.00;98.20;;;;;;4962835;28;20490;-76
2024/01/21 05:36:50;;;;;;;1.70;1.60;;;0.00;98.20;;;;;;4957419;28;20486;-75
2024/01/21 05:39:17;;;;;;;1.63;1.53;;;0.00;98.20;;;;;;4966272;28;20998;-74
2024/01/21 05:41:44;;;;;;;1.70;1.60;;;0.00;98.20;;;;;;4951577;28;21039;-76
2024/01/21 05:44:11;;;;;;;1.70;1.60;;;0.00;98.20;;;;;;4965206;28;20992;-74
2024/01/21 05:46:37;;;;;;;1.63;1.50;;;0.00;98.20;;;;;;4952320;28;20478;-75
2024/01/21 05:49:06;;;;;;;1.83;1.73;;;0.00;98.20;;;;;;4966920;28;20569;-76
2024/01/21 05:51:32;;;;;;;1.80;1.70;;;0.10;98.20;;;;;;4952002;28;20516;-74
2024/01/21 05:53:59;;;;;;;1.70;1.60;;;0.10;98.20;;;;;;4959780;28;20815;-75
2024/01/21 05:56:26;;;;;;;1.70;1.60;;;0.10;98.20;;;;;;4951096;28;20497;-75
2024/01/21 05:58:52;;;;;;;1.60;1.50;;;0.10;98.20;;;;;;4966945;28;20486;-77
2024/01/21 06:01:19;;;;;;;1.70;1.60;;;0.10;98.20;;;;;;4956013;28;21212;-75
2024/01/21 06:03:46;;;;;;;1.87;1.77;;;0.10;98.20;;;;;;4963553;28;20988;-75
2024/01/21 06:06:14;;;;;;;1.70;1.60;;;0.10;98.20;;;;;;4952575;28;20481;-75
2024/01/21 06:08:41;;;;;;;1.80;1.70;;;0.10;98.20;;;;;;4962096;28;20482;-75
2024/01/21 06:11:08;;;;;;;1.87;1.77;;;0.10;98.20;;;;;;4938190;28;20497;-75
2024/01/21 06:13:35;;;;;;;1.70;1.60;;;0.10;98.20;;;;;;4966972;28;20878;-75
2024/01/21 06:16:03;;;;;;;1.60;1.50;;;0.10;98.20;;;;;;4945599;28;20491;-75
2024/01/21 06:18:29;;;;;;;1.97;1.87;;;0.00;98.20;;;;;;4961276;28;20533;-75
2024/01/21 06:20:56;;;;;;;1.77;1.67;;;0.00;98.20;;;;;;4947598;28;20463;-76
2024/01/21 06:23:24;;;;;;;1.80;1.70;;;0.00;98.20;;;;;;4966596;28;20861;-75
2024/01/21 06:25:51;;;;;;;2.30;2.10;;;-0.10;98.20;;;;;;4950373;28;20466;-75
2024/01/21 06:28:18;;;;;;;1.80;1.70;;;-0.10;98.20;;;;;;4963612;28;20485;-75
2024/01/21 06:30:45;;;;;;;1.80;1.70;;;-0.10;98.20;;;;;;4951107;28;20466;-76
2024/01/21 06:33:12;;;;;;;1.70;1.60;;;-0.10;98.20;;;;;;4939631;28;21034;-75
2024/01/21 06:35:39;;;;;;;1.60;1.50;;;-0.10;98.20;;;;;;4969556;28;20486;-74
2024/01/21 06:38:06;;;;;;;1.60;1.50;;;-0.10;98.20;;;;;;4959950;28;21012;-76
2024/01/21 06:40:34;;;;;;;1.60;1.50;;;-0.10;98.20;;;;;;4962670;28;20830;-75
2024/01/21 06:43:01;;;;;;;1.60;1.50;;;0.00;98.20;;;;;;4953511;28;20514;-75
2024/01/21 06:45:27;;;;;;;1.73;1.63;;;0.00;98.20;;;;;;4959659;28;20462;-76
2024/01/21 06:47:54;;;;;;;1.63;1.50;;;0.00;98.20;;;;;;4954377;28;20486;-76
2024/01/21 06:50:22;;;;;;;1.70;1.60;;;0.00;98.20;;;;;;4955633;28;20459;-77
2024/01/21 06:52:49;;;;;;;1.70;1.60;;;0.00;98.20;;;;;;4958026;28;20532;-77
2024/01/21 06:55:15;;;;;;;2.27;2.07;;;0.00;98.20;;;;;;4958497;28;20497;-74
2024/01/21 06:57:43;;;;;;;1.67;1.57;;;0.00;98.20;;;;;;4958993;28;20473;-77
2024/01/21 07:00:12;;;;;;;1.60;1.50;;;0.00;98.20;;;;;;4965486;28;20490;-74
2024/01/21 07:02:39;;;;;;;1.60;1.50;;;-0.10;98.20;;;;;;4958898;28;20481;-75
2024/01/21 07:05:06;;;;;;;1.70;1.60;;;0.00;98.20;;;;;;4958391;28;20470;-77
2024/01/21 07:07:33;;;;;;;1.70;1.60;;;0.00;98.20;;;;;;4956916;28;20490;-74
2024/01/21 07:09:59;;;;;;;1.80;1.70;;;0.00;98.20;;;;;;4961048;28;20485;-76
2024/01/21 07:12:26;;;;;;;1.70;1.60;;;0.00;98.20;;;;;;4938067;28;20490;-75
2024/01/21 07:14:54;;;;;;;17.93;4.67;;;0.00;98.20;;;;;;4955704;28;20458;-75
2024/01/21 07:17:22;;;;;;;1.80;1.70;;;0.10;98.20;;;;;;4948809;28;20474;-75
2024/01/21 07:19:52;;;;;;;1.60;1.50;;;0.10;98.20;;;;;;4958270;28;21009;-75
2024/01/21 07:22:19;;;;;;;3.60;3.40;;;0.20;98.20;;;;;;4933418;28;20480;-76
2024/01/21 07:24:45;;;;;;;1.70;1.60;;;0.20;98.20;;;;;;4961861;28;20843;-75
2024/01/21 07:27:12;;;;;;;1.70;1.60;;;0.20;98.20;;;;;;4953958;28;20848;-76
2024/01/21 07:29:39;;;;;;;1.80;1.70;;;0.30;98.20;;;;;;4963027;28;20498;-77
2024/01/21 07:32:08;;;;;;;1.60;1.50;;;0.30;98.20;;;;;;4951602;28;20606;-75
2024/01/21 07:34:34;;;;;;;1.70;1.60;;;0.30;98.20;;;;;;4954448;28;20529;-75
2024/01/21 07:37:02;;;;;;;1.70;1.60;;;0.30;98.20;;;;;;4952829;28;20494;-76
2024/01/21 07:39:28;;;;;;;1.60;1.50;;;0.30;98.20;;;;;;4959345;28;20487;-77
2024/01/21 07:41:55;;;;;;;1.80;1.70;;;0.40;98.20;;;;;;4946835;28;20478;-76
2024/01/21 07:44:22;;;;;;;1.80;1.70;;;0.40;98.20;;;;;;4957352;28;20473;-75
2024/01/21 07:46:49;;;;;;;1.70;1.60;;;0.40;98.20;;;;;;4957338;28;21039;-78
2024/01/21 07:49:17;;;;;;;1.70;1.60;;;0.40;98.20;;;;;;4961996;28;20549;-78
2024/01/21 07:51:45;;;;;;;1.60;1.40;;;0.50;98.20;;;;;;4954720;28;20605;-78
2024/01/21 07:54:11;;;;;;;1.77;1.67;;;0.50;98.20;;;;;;4964370;28;20474;-76
2024/01/21 07:56:38;;;;;;;1.60;1.50;;;0.50;98.20;;;;;;4951720;28;20495;-78
2024/01/21 07:59:05;;;;;;;1.60;1.50;;;0.50;98.20;;;;;;4961543;28;20482;-80
2024/01/21 08:01:32;;;;;;;1.80;1.70;;;0.50;98.20;;;;;;4939275;29;20659;-77
2024/01/21 08:03:58;;;;;;;1.60;1.50;;;0.50;98.20;;;;;;4959649;28;20470;-82
2024/01/21 08:06:27;;;;;;;1.60;1.50;;;0.50;98.20;;;;;;4952336;28;20572;-83
2024/01/21 08:08:53;;;;;;;1.70;1.57;;;0.50;98.20;;;;;;4960001;28;20490;-81
2024/01/21 08:11:20;;;;;;;1.73;1.63;;;0.50;98.20;;;;;;4955889;28;21037;-81
2024/01/21 08:13:47;;;;;;;1.80;1.70;;;0.50;98.20;;;;;;4954233;28;20534;-79
2024/01/21 08:16:14;;;;;;;1.80;1.70;;;0.50;98.20;;;;;;4955873;28;20477;-78
2024/01/21 08:18:40;;;;;;;1.70;1.60;;;0.50;98.20;;;;;;4967394;28;20494;-81
2024/01/21 08:21:08;;;;;;;1.70;1.60;;;0.60;98.20;;;;;;4957611;28;20534;-77
2024/01/21 08:23:36;;;;;;;1.67;1.50;;;0.60;98.20;;;;;;4953693;28;20462;-77
2024/01/21 08:26:04;;;;;;;1.70;1.60;;;0.70;98.20;;;;;;4951029;28;20459;-80
2024/01/21 08:28:31;;;;;;;1.70;1.60;;;0.60;98.20;;;;;;4961317;28;20584;-77
2024/01/21 08:30:58;;;;;;;1.70;1.50;;;0.70;98.20;;;;;;4955384;28;20981;-78
2024/01/21 08:33:25;;;;;;;1.70;1.60;;;0.70;98.20;;;;;;4966317;28;20470;-81
2024/01/21 08:35:51;;;;;;;1.60;1.50;;;0.70;98.20;;;;;;4948564;28;20491;-81
2024/01/21 08:38:18;;;;;;;1.60;1.50;;;0.70;98.20;;;;;;4969604;28;20494;-79
2024/01/21 08:40:46;;;;;;;1.77;1.67;;;0.80;98.20;;;;;;4958413;28;20466;-82
2024/01/21 08:43:13;;;;;;;1.70;1.57;;;0.80;98.20;;;;;;4941476;28;20485;-80
2024/01/21 08:45:40;;;;;;;1.60;1.50;;;0.90;98.20;;;;;;4954114;28;20937;-78
2024/01/21 08:48:07;;;;;;;1.70;1.60;;;0.90;98.20;;;;;;4951991;28;20482;-82
2024/01/21 08:50:34;;;;;;;1.60;1.50;;;1.00;98.20;;;;;;4963933;28;20849;-78
2024/01/21 08:53:01;;;;;;;1.60;1.50;;;1.00;98.20;;;;;;4962502;28;20485;-79
2024/01/21 08:55:27;;;;;;;1.60;1.50;;;1.00;98.20;;;;;;4964604;28;20465;-80
2024/01/21 08:57:55;;;;;;;1.80;1.70;;;1.00;98.20;;;;;;4956167;28;20565;-82
2024/01/21 09:00:22;;;;;;;1.60;1.50;;;1.10;98.20;;;;;;4964218;28;20779;-79
2024/01/21 09:02:49;;;;;;;2.20;2.00;;;1.10;98.20;;;;;;4961469;28;20489;-79
2024/01/21 09:05:16;;;;;;;1.60;1.50;;;1.10;98.20;;;;;;4962791;28;21104;-79
2024/01/21 09:07:43;;;;;;;1.60;1.50;;;1.20;98.20;;;;;;4954357;28;20481;-79
2024/01/21 09:10:10;;;;;;;1.60;1.50;;;1.20;98.20;;;;;;4960543;28;20486;-81
2024/01/21 09:12:36;;;;;;;1.63;1.50;;;1.30;98.20;;;;;;4955020;28;21024;-80
2024/01/21 09:15:06;;;;;;;1.60;1.50;;;1.30;98.20;;;;;;4957384;28;20470;-79
2024/01/21 09:17:33;;;;;;;1.63;1.50;;;1.40;98.20;;;;;;4961344;28;20494;-80
2024/01/21 09:20:00;;;;;;;1.60;1.40;;;1.40;98.20;;;;;;4967624;28;20488;-79
2024/01/21 09:22:27;;;;;;;1.63;1.40;;;1.40;98.20;;;;;;4942678;28;20487;-79
2024/01/21 09:24:53;;;;;;;1.63;1.50;;;1.50;98.20;;;;;;4961964;28;20840;-82
2024/01/21 09:27:20;;;;;;;1.70;1.60;;;1.50;98.20;;;;;;4961995;28;20474;-81
2024/01/21 09:29:47;;;;;;;1.70;1.60;;;1.60;98.20;;;;;;4958216;28;20501;-80
2024/01/21 09:32:15;;;;;;;1.67;1.53;;;1.60;98.20;;;;;;4964063;28;20482;-82
2024/01/21 09:34:43;;;;;;;1.70;1.57;;;1.70;98.20;;;;;;4965463;28;20486;-82
2024/01/21 09:37:10;;;;;;;1.63;1.50;;;1.70;98.20;;;;;;4949037;28;20494;-79
2024/01/21 09:39:38;;;;;;;1.80;1.70;;;1.70;98.20;;;;;;4964932;28;21082;-81
2024/01/21 09:42:08;;;;;;;1.60;1.50;;;1.80;98.20;;;;;;4961510;28;21356;-84
2024/01/21 09:44:34;;;;;;;1.70;1.60;;;1.80;98.20;;;;;;4971944;28;20470;-81
2024/01/21 09:47:02;;;;;;;1.67;1.50;;;1.90;98.20;;;;;;4964527;28;20482;-82
2024/01/21 09:49:31;;;;;;;1.90;1.80;;;2.00;98.20;;;;;;4969192;28;20552;-82
2024/01/21 09:51:59;;;;;;;1.63;1.50;;;2.00;98.20;;;;;;4959840;28;20501;-82
2024/01/21 09:54:26;;;;;;;1.67;1.57;;;2.00;98.20;;;;;;4969418;28;20462;-83
2024/01/21 09:56:53;;;;;;;1.60;1.50;;;2.10;98.20;;;;;;4956616;28;20533;-84
2024/01/21 09:59:19;;;;;;;1.70;1.50;;;2.10;98.20;;;;;;4965116;28;20501;-85
2024/01/21 10:01:47;;;;;;;1.60;1.40;;;2.20;98.20;;;;;;4958216;28;20984;-81
2024/01/21 10:04:15;;;;;;;1.80;1.70;;;2.20;98.20;;;;;;4965004;28;20549;-83
2024/01/21 10:06:43;;;;;;;1.70;1.50;;;2.30;98.20;;;;;;4952537;28;20672;-82
2024/01/21 10:09:16;;;;;;;2.53;2.33;;;2.30;98.20;;;;;;4969488;28;20493;-84
2024/01/21 10:11:43;;;;;;;1.70;1.60;;;2.40;98.20;;;;;;4958657;28;21027;-84
2024/01/21 10:14:10;;;;;;;1.93;1.73;;;2.40;98.20;;;;;;4965875;28;20463;-83
2024/01/21 10:16:42;;;;;;;1.67;1.50;;;2.50;98.20;;;;;;4963952;28;20480;-83
2024/01/21 10:19:12;;;;;;;1.63;1.50;;;2.50;98.20;;;;;;4975296;28;20501;-83
2024/01/21 10:21:39;;;;;;;1.67;1.50;;;2.50;98.20;;;;;;4957112;28;20577;-83
2024/01/21 10:24:09;;;;;;;1.60;1.40;;;2.50;98.20;;;;;;4970956;28;20488;-84
2024/01/21 10:26:37;;;;;;;1.70;1.50;;;2.60;98.20;;;;;;4956008;28;20509;-86
2024/01/21 10:29:04;;;;;;;1.63;1.47;;;2.60;98.20;;;;;;4967296;28;20491;-85
2024/01/21 10:31:33;;;;;;;1.60;1.40;;;2.60;98.20;;;;;;4955452;28;20506;-85
2024/01/21 10:34:03;;;;;;;1.67;1.53;;;2.60;98.20;;;;;;4961103;28;20562;-84
2024/01/21 10:36:33;;;;;;;1.60;1.40;;;2.60;98.20;;;;;;4958354;28;20583;-83
2024/01/21 11:03:10;;;;;;;1.70;1.57;;;2.80;98.20;;;;;;4885120;29;20516;-79
2024/01/21 11:05:52;;;;;;;1.90;1.80;;;2.80;98.20;;;;;;4914999;29;20461;-81
2024/01/21 11:08:50;;;;;;;1.60;1.40;;;2.90;98.20;;;;;;4950568;28;20533;-78
2024/01/21 11:11:57;;;;;;;;;;;;;;;;;;;;;
2024/01/21 11:14:43;;;;;;;1.60;1.40;;;2.90;98.20;;;;;;4930922;28;20553;-79
2024/01/21 11:17:41;;;;;;;1.60;1.40;;;2.90;98.20;;;;;;4950981;28;20479;-80
2024/01/21 11:24:13;;;;;;;1.70;1.50;;;2.90;98.20;;;;;;4904481;28;20478;-80
2024/01/21 11:30:19;;;;;;;1.60;1.50;;;2.90;98.20;;;;;;4945776;28;20479;-80
2024/01/21 11:33:06;;;;;;;1.70;1.60;;;2.90;98.20;;;;;;4948435;28;20550;-80
2024/01/21 11:39:27;;;;;;;1.70;1.53;;;3.00;98.20;;;;;;4942797;28;20493;-82
2024/01/21 11:45:57;;;;;;;1.70;1.50;;;3.10;98.20;;;;;;4947252;28;20545;-79
2024/01/21 11:48:40;;;;;;;1.63;1.50;;;3.10;98.20;;;;;;4947994;28;20474;-80
2024/01/21 11:51:10;;;;;;;1.60;1.40;;;3.10;98.20;;;;;;4952228;28;20470;-81
2024/01/21 11:53:38;;;;;;;1.60;1.50;;;3.20;98.20;;;;;;4955399;29;20463;-79
2024/01/21 11:56:15;;;;;;;1.70;1.60;;;3.20;98.20;;;;;;4948575;29;20472;-82
2024/01/21 11:58:53;;;;;;;5.60;5.20;;;3.20;98.20;;;;;;4955563;28;20487;-82
2024/01/21 12:12:28;;;;;;;1.60;1.40;;;3.20;98.20;;;;;;6099061;22;3703751;-81
2024/01/21 12:14:56;;;;;;;1.60;1.30;;;3.60;98.20;;;;;;6215225;23;20159;-81
2024/01/21 12:17:33;;;;;;;1.70;1.60;;;3.70;98.20;;;;;;6199206;23;20474;-81
2024/01/21 12:36:17;;;;;;;1.63;1.40;;;4.00;98.20;;;;;;6176929;23;20501;-81
2024/01/21 12:39:04;;;;;;;1.60;1.30;;;4.00;98.20;;;;;;6215350;23;20511;-82
2024/01/21 12:41:31;;;;;;;2.63;2.43;;;4.10;98.20;;;;;;6187622;23;20504;-81
2024/01/21 12:44:09;;;;;;;1.67;1.43;;;4.00;98.20;;;;;;6217347;23;20509;-82
2024/01/21 12:50:01;;;;;;;1.60;1.40;;;4.10;98.20;;;;;;6144531;23;21149;-83
2024/01/21 12:53:02;;;;;;;;;;;;;;;;;;;;;
2024/01/21 12:56:12;;;;;;;;;;;;;;;;;;;;;
2024/01/21 12:59:07;;;;;;;1.60;1.43;;;4.30;98.20;;;;;;6168131;23;20774;-85
2024/01/21 13:02:19;;;;;;;1.60;1.30;;;4.30;98.20;;;;;;6191171;23;20541;-84
2024/01/21 13:05:13;;;;;;;1.60;1.30;;;4.40;98.20;;;;;;6219300;23;20422;-83
2024/01/21 13:08:11;;;;;;;1.67;1.50;;;4.40;98.20;;;;;;6119261;23;20464;-84
2024/01/21 13:15:10;;;;;;;;;;;;;;;;;;;;;
2024/01/21 13:17:49;;;;;;;1.60;1.40;;;4.50;98.20;;;;;;6100256;23;20649;-84
2024/01/21 13:31:00;;;;;;;1.60;1.33;;;4.40;98.20;;;;;;6133663;23;20452;-85
2024/01/21 13:43:53;;;;;;;1.60;1.40;;;4.40;98.20;;;;;;6132440;23;20927;-85
2024/01/21 13:50:14;;;;;;;1.60;1.40;;;4.40;98.20;;;;;;6176927;23;20459;-84
2024/01/21 13:53:28;;;;;;;1.60;1.40;;;4.40;98.20;;;;;;6104104;23;20531;-85
2024/01/21 13:59:14;;;;;;;1.60;1.37;;;4.30;98.20;;;;;;5944388;24;20451;-85
2024/01/21 14:02:15;;;;;;;1.63;1.40;;;4.30;98.20;;;;;;5921824;24;20868;-85
2024/01/21 14:12:09;;;;;;;1.60;1.30;;;4.30;98.20;;;;;;6095062;23;20436;-84
2024/01/21 14:14:52;;;;;;;1.60;1.30;;;4.20;98.20;;;;;;6172392;23;20439;-83
2024/01/21 14:17:48;;;;;;;1.60;1.30;;;4.20;98.20;;;;;;6166728;23;20448;-83
2024/01/21 14:20:43;;;;;;;1.63;1.50;;;4.20;98.20;;;;;;6193980;23;20447;-82
2024/01/21 14:23:24;;;;;;;3.23;2.70;;;4.20;98.20;;;;;;6144630;23;20486;-82
2024/01/21 14:26:06;;;;;;;1.60;1.37;;;4.20;98.20;;;;;;6183192;23;20959;-83
2024/01/21 14:28:38;;;;;;;1.60;1.40;;;4.20;98.20;;;;;;6196728;23;20537;-83
2024/01/21 14:31:13;;;;;;;1.60;1.40;;;4.20;98.20;;;;;;6183261;23;20432;-83
2024/01/21 14:33:42;;;;;;;1.80;1.70;;;4.20;98.20;;;;;;6187887;23;20403;-83
2024/01/21 14:36:09;;;;;;;1.60;1.30;;;4.20;98.20;;;;;;6184578;23;20761;-83
2024/01/21 14:38:51;;;;;;;5.60;5.30;;;4.20;98.20;;;;;;6187967;23;20498;-83
2024/01/21 14:41:19;;;;;;;1.90;1.70;;;4.20;98.20;;;;;;6176515;23;20710;-83
2024/01/21 14:43:49;;;;;;;1.60;1.40;;;4.20;98.20;;;;;;6200608;23;20420;-83
2024/01/21 14:46:21;;;;;;;1.60;1.30;;;4.20;98.20;;;;;;6187863;23;20444;-82
2024/01/21 14:48:48;;;;;;;1.60;1.30;;;4.20;98.20;;;;;;6206565;23;20451;-82
2024/01/21 14:51:17;;;;;;;2.53;2.33;;;4.30;98.20;;;;;;6189873;23;20453;-82
2024/01/21 14:53:46;;;;;;;3.10;2.90;;;4.30;98.20;;;;;;6191566;23;20427;-81
2024/01/21 14:56:14;;;;;;;1.60;1.30;;;4.30;98.20;;;;;;6174376;23;20451;-82
2024/01/21 14:58:41;;;;;;;3.70;3.20;;;4.30;98.20;;;;;;6195828;23;20460;-83